sensor_id;sensor_type;location;lat;lon;timestamp;temperature;humidity
4651;DHT22;2338;49.602;8.722;2022-10-26T00:01:43;12.80;99.90
4651;DHT22;2338;49.602;8.722;2022-10-26T00:04:30;12.60;99.90
4651;DHT22;2338;49.602;8.722;2022-10-26T00:07:16;12.70;99.90
4651;DHT22;2338;49.602;8.722;2022-10-26T00:10:02;12.70;99.90
4651;DHT22;2338;49.602;8.722;2022-10-26T00:12:49;12.70;99.90
4651;DHT22;2338;49.602;8.722;2022-10-26T00:15:39;12.60;99.90
4651;DHT22;2338;49.602;8.722;2022-10-26T00:18:25;12.50;99.90
4651;DHT22;2338;49.602;8.722;2022-10-26T00:21:12;12.50;99.90
4651;DHT22;2338;49.602;8.722;2022-10-26T00:23:58;12.50;99.90
4651;DHT22;2338;49.602;8.722;2022-10-26T00:26:44;12.60;99.90
4651;DHT22;2338;49.602;8.722;2022-10-26T00:29:29;12.60;99.90
4651;DHT22;2338;49.602;8.722;2022-10-26T00:32:15;12.50;99.90
4651;DHT22;2338;49.602;8.722;2022-10-26T00:35:01;12.50;99.90
4651;DHT22;2338;49.602;8.722;2022-10-26T00:37:48;12.50;99.90
4651;DHT22;2338;49.602;8.722;2022-10-26T00:40:33;12.50;99.90
4651;DHT22;2338;49.602;8.722;2022-10-26T00:43:35;12.50;99.90
4651;DHT22;2338;49.602;8.722;2022-10-26T00:46:22;12.60;99.90
4651;DHT22;2338;49.602;8.722;2022-10-26T00:49:13;12.60;99.90
4651;DHT22;2338;49.602;8.722;2022-10-26T00:52:00;12.70;99.90
4651;DHT22;2338;49.602;8.722;2022-10-26T00:54:47;12.70;99.90
4651;DHT22;2338;49.602;8.722;2022-10-26T01:00:20;12.80;99.90
4651;DHT22;2338;49.602;8.722;2022-10-26T01:03:07;12.90;99.90
4651;DHT22;2338;49.602;8.722;2022-10-26T01:05:55;12.90;99.90
4651;DHT22;2338;49.602;8.722;2022-10-26T01:08:42;13.00;99.90
4651;DHT22;2338;49.602;8.722;2022-10-26T01:11:29;12.90;99.90
4651;DHT22;2338;49.602;8.722;2022-10-26T01:14:17;12.80;99.90
4651;DHT22;2338;49.602;8.722;2022-10-26T01:17:15;12.80;99.90
4651;DHT22;2338;49.602;8.722;2022-10-26T01:23:33;12.80;99.90
4651;DHT22;2338;49.602;8.722;2022-10-26T01:27:02;12.60;99.90
4651;DHT22;2338;49.602;8.722;2022-10-26T01:30:14;12.60;99.90
4651;DHT22;2338;49.602;8.722;2022-10-26T01:33:25;12.70;99.90
4651;DHT22;2338;49.602;8.722;2022-10-26T01:36:19;12.80;99.90
4651;DHT22;2338;49.602;8.722;2022-10-26T01:39:11;12.90;99.90
4651;DHT22;2338;49.602;8.722;2022-10-26T01:42:00;12.80;99.90
4651;DHT22;2338;49.602;8.722;2022-10-26T01:44:51;12.90;99.90
4651;DHT22;2338;49.602;8.722;2022-10-26T01:47:39;12.90;99.90
4651;DHT22;2338;49.602;8.722;2022-10-26T01:50:26;13.00;99.90
4651;DHT22;2338;49.602;8.722;2022-10-26T01:53:12;13.00;99.90
4651;DHT22;2338;49.602;8.722;2022-10-26T01:55:58;13.00;99.90
4651;DHT22;2338;49.602;8.722;2022-10-26T01:59:05;13.00;99.90
4651;DHT22;2338;49.602;8.722;2022-10-26T02:02:22;13.10;99.90
4651;DHT22;2338;49.602;8.722;2022-10-26T02:05:22;13.00;99.90
4651;DHT22;2338;49.602;8.722;2022-10-26T02:08:29;13.00;99.90
4651;DHT22;2338;49.602;8.722;2022-10-26T02:11:27;13.10;99.90
4651;DHT22;2338;49.602;8.722;2022-10-26T02:14:20;13.20;99.90
4651;DHT22;2338;49.602;8.722;2022-10-26T02:17:12;13.20;99.90
4651;DHT22;2338;49.602;8.722;2022-10-26T02:20:03;13.10;99.90
4651;DHT22;2338;49.602;8.722;2022-10-26T02:22:53;13.10;99.90
4651;DHT22;2338;49.602;8.722;2022-10-26T02:25:44;13.00;99.90
4651;DHT22;2338;49.602;8.722;2022-10-26T02:28:35;13.00;99.90
4651;DHT22;2338;49.602;8.722;2022-10-26T02:31:22;13.10;99.90
4651;DHT22;2338;49.602;8.722;2022-10-26T02:34:12;13.20;99.90
4651;DHT22;2338;49.602;8.722;2022-10-26T02:37:00;13.20;99.90
4651;DHT22;2338;49.602;8.722;2022-10-26T02:39:50;13.20;99.90
4651;DHT22;2338;49.602;8.722;2022-10-26T02:42:37;13.10;99.90
4651;DHT22;2338;49.602;8.722;2022-10-26T02:45:27;13.20;99.90
4651;DHT22;2338;49.602;8.722;2022-10-26T02:48:15;13.10;99.90
4651;DHT22;2338;49.602;8.722;2022-10-26T02:51:05;13.20;99.90
4651;DHT22;2338;49.602;8.722;2022-10-26T02:53:57;13.20;99.90
4651;DHT22;2338;49.602;8.722;2022-10-26T02:56:50;13.10;99.90
4651;DHT22;2338;49.602;8.722;2022-10-26T02:59:40;13.10;99.90
4651;DHT22;2338;49.602;8.722;2022-10-26T03:02:27;13.10;99.90
4651;DHT22;2338;49.602;8.722;2022-10-26T03:05:15;13.20;99.90
4651;DHT22;2338;49.602;8.722;2022-10-26T03:08:03;13.10;99.90
4651;DHT22;2338;49.602;8.722;2022-10-26T03:10:48;13.20;99.90
4651;DHT22;2338;49.602;8.722;2022-10-26T03:13:35;13.20;99.90
4651;DHT22;2338;49.602;8.722;2022-10-26T03:16:20;13.20;99.90
4651;DHT22;2338;49.602;8.722;2022-10-26T03:19:06;13.20;99.90
4651;DHT22;2338;49.602;8.722;2022-10-26T03:21:51;13.20;99.90
4651;DHT22;2338;49.602;8.722;2022-10-26T03:24:37;13.10;99.90
4651;DHT22;2338;49.602;8.722;2022-10-26T03:27:23;13.20;99.90
4651;DHT22;2338;49.602;8.722;2022-10-26T03:30:11;13.10;99.90
4651;DHT22;2338;49.602;8.722;2022-10-26T03:32:57;13.20;99.90
4651;DHT22;2338;49.602;8.722;2022-10-26T03:35:43;13.20;99.90
4651;DHT22;2338;49.602;8.722;2022-10-26T03:38:28;13.30;99.90
4651;DHT22;2338;49.602;8.722;2022-10-26T03:41:14;13.40;99.90
4651;DHT22;2338;49.602;8.722;2022-10-26T03:44:00;13.40;99.90
4651;DHT22;2338;49.602;8.722;2022-10-26T03:46:47;13.40;99.90
4651;DHT22;2338;49.602;8.722;2022-10-26T03:49:32;13.40;99.90
4651;DHT22;2338;49.602;8.722;2022-10-26T03:52:19;13.40;99.90
4651;DHT22;2338;49.602;8.722;2022-10-26T03:55:05;13.50;99.90
4651;DHT22;2338;49.602;8.722;2022-10-26T03:57:51;13.50;99.90
4651;DHT22;2338;49.602;8.722;2022-10-26T04:00:36;13.50;99.90
4651;DHT22;2338;49.602;8.722;2022-10-26T04:03:23;13.50;99.90
4651;DHT22;2338;49.602;8.722;2022-10-26T04:06:09;13.60;99.90
4651;DHT22;2338;49.602;8.722;2022-10-26T04:08:55;13.60;99.90
4651;DHT22;2338;49.602;8.722;2022-10-26T04:11:45;13.60;99.90
4651;DHT22;2338;49.602;8.722;2022-10-26T04:14:31;13.60;99.90
4651;DHT22;2338;49.602;8.722;2022-10-26T04:17:17;13.60;99.90
4651;DHT22;2338;49.602;8.722;2022-10-26T04:20:04;13.50;99.90
4651;DHT22;2338;49.602;8.722;2022-10-26T04:22:56;13.50;99.90
4651;DHT22;2338;49.602;8.722;2022-10-26T04:25:42;13.50;99.90
4651;DHT22;2338;49.602;8.722;2022-10-26T04:28:28;13.40;99.90
4651;DHT22;2338;49.602;8.722;2022-10-26T04:31:14;13.30;99.90
4651;DHT22;2338;49.602;8.722;2022-10-26T04:34:00;13.30;99.90
4651;DHT22;2338;49.602;8.722;2022-10-26T04:36:47;13.20;99.90
4651;DHT22;2338;49.602;8.722;2022-10-26T04:39:32;13.20;99.90
4651;DHT22;2338;49.602;8.722;2022-10-26T04:42:18;13.10;99.90
4651;DHT22;2338;49.602;8.722;2022-10-26T04:45:04;13.00;99.90
4651;DHT22;2338;49.602;8.722;2022-10-26T04:47:58;12.90;99.90
4651;DHT22;2338;49.602;8.722;2022-10-26T04:50:44;12.80;99.90
4651;DHT22;2338;49.602;8.722;2022-10-26T04:53:32;12.90;99.90
4651;DHT22;2338;49.602;8.722;2022-10-26T04:56:17;13.00;99.90
4651;DHT22;2338;49.602;8.722;2022-10-26T04:59:03;12.90;99.90
4651;DHT22;2338;49.602;8.722;2022-10-26T05:01:49;12.90;99.90
4651;DHT22;2338;49.602;8.722;2022-10-26T05:04:35;12.90;99.90
4651;DHT22;2338;49.602;8.722;2022-10-26T05:07:20;12.90;99.90
4651;DHT22;2338;49.602;8.722;2022-10-26T05:10:08;12.90;99.90
4651;DHT22;2338;49.602;8.722;2022-10-26T05:12:54;13.00;99.90
4651;DHT22;2338;49.602;8.722;2022-10-26T05:15:40;13.00;99.90
4651;DHT22;2338;49.602;8.722;2022-10-26T05:18:26;12.90;99.90
4651;DHT22;2338;49.602;8.722;2022-10-26T05:21:12;12.90;99.90
4651;DHT22;2338;49.602;8.722;2022-10-26T05:24:02;13.00;99.90
4651;DHT22;2338;49.602;8.722;2022-10-26T05:26:49;13.00;99.90
4651;DHT22;2338;49.602;8.722;2022-10-26T05:29:35;13.00;99.90
4651;DHT22;2338;49.602;8.722;2022-10-26T05:32:20;13.00;99.90
4651;DHT22;2338;49.602;8.722;2022-10-26T05:35:06;13.00;99.90
4651;DHT22;2338;49.602;8.722;2022-10-26T05:37:52;12.90;99.90
4651;DHT22;2338;49.602;8.722;2022-10-26T05:40:38;12.90;99.90
4651;DHT22;2338;49.602;8.722;2022-10-26T05:43:31;12.90;99.90
4651;DHT22;2338;49.602;8.722;2022-10-26T05:46:17;12.90;99.90
4651;DHT22;2338;49.602;8.722;2022-10-26T05:49:03;12.80;99.90
4651;DHT22;2338;49.602;8.722;2022-10-26T05:51:49;12.80;99.90
4651;DHT22;2338;49.602;8.722;2022-10-26T05:54:34;12.90;99.90
4651;DHT22;2338;49.602;8.722;2022-10-26T05:57:21;13.00;99.90
4651;DHT22;2338;49.602;8.722;2022-10-26T06:00:11;13.00;99.90
4651;DHT22;2338;49.602;8.722;2022-10-26T06:03:08;13.00;99.90
4651;DHT22;2338;49.602;8.722;2022-10-26T06:06:00;13.00;99.90
4651;DHT22;2338;49.602;8.722;2022-10-26T06:08:46;12.90;99.90
4651;DHT22;2338;49.602;8.722;2022-10-26T06:11:32;12.90;99.90
4651;DHT22;2338;49.602;8.722;2022-10-26T06:14:19;12.90;99.90
4651;DHT22;2338;49.602;8.722;2022-10-26T06:17:19;13.00;99.90
4651;DHT22;2338;49.602;8.722;2022-10-26T06:20:23;13.10;99.90
4651;DHT22;2338;49.602;8.722;2022-10-26T06:23:27;13.10;99.90
4651;DHT22;2338;49.602;8.722;2022-10-26T06:26:25;13.20;99.90
4651;DHT22;2338;49.602;8.722;2022-10-26T06:29:21;13.20;99.90
4651;DHT22;2338;49.602;8.722;2022-10-26T06:32:11;13.20;99.90
4651;DHT22;2338;49.602;8.722;2022-10-26T06:35:03;13.20;99.90
4651;DHT22;2338;49.602;8.722;2022-10-26T06:37:57;13.30;99.90
4651;DHT22;2338;49.602;8.722;2022-10-26T06:40:45;13.30;99.90
4651;DHT22;2338;49.602;8.722;2022-10-26T06:43:34;13.30;99.90
4651;DHT22;2338;49.602;8.722;2022-10-26T06:46:29;13.30;99.90
4651;DHT22;2338;49.602;8.722;2022-10-26T06:49:22;13.40;99.90
4651;DHT22;2338;49.602;8.722;2022-10-26T06:52:15;13.40;99.90
4651;DHT22;2338;49.602;8.722;2022-10-26T06:55:03;13.20;99.90
4651;DHT22;2338;49.602;8.722;2022-10-26T06:57:50;13.20;99.90
4651;DHT22;2338;49.602;8.722;2022-10-26T07:00:35;13.30;99.90
4651;DHT22;2338;49.602;8.722;2022-10-26T07:03:21;13.40;99.90
4651;DHT22;2338;49.602;8.722;2022-10-26T07:06:09;13.40;99.90
4651;DHT22;2338;49.602;8.722;2022-10-26T07:08:54;13.50;99.90
4651;DHT22;2338;49.602;8.722;2022-10-26T07:11:40;13.50;99.90
4651;DHT22;2338;49.602;8.722;2022-10-26T07:14:26;13.60;99.90
4651;DHT22;2338;49.602;8.722;2022-10-26T07:17:11;13.60;99.90
4651;DHT22;2338;49.602;8.722;2022-10-26T07:19:57;13.60;99.90
4651;DHT22;2338;49.602;8.722;2022-10-26T07:22:44;13.60;99.90
4651;DHT22;2338;49.602;8.722;2022-10-26T07:25:29;13.70;99.90
4651;DHT22;2338;49.602;8.722;2022-10-26T07:28:15;13.70;99.90
4651;DHT22;2338;49.602;8.722;2022-10-26T07:31:00;13.70;99.90
4651;DHT22;2338;49.602;8.722;2022-10-26T07:33:48;13.70;99.90
4651;DHT22;2338;49.602;8.722;2022-10-26T07:36:34;13.70;99.90
4651;DHT22;2338;49.602;8.722;2022-10-26T07:39:21;13.60;99.90
4651;DHT22;2338;49.602;8.722;2022-10-26T07:42:07;13.70;99.90
4651;DHT22;2338;49.602;8.722;2022-10-26T07:44:53;13.80;99.90
4651;DHT22;2338;49.602;8.722;2022-10-26T07:47:38;13.80;99.90
4651;DHT22;2338;49.602;8.722;2022-10-26T07:50:24;13.80;99.90
4651;DHT22;2338;49.602;8.722;2022-10-26T07:53:10;14.00;99.90
4651;DHT22;2338;49.602;8.722;2022-10-26T07:55:57;14.20;99.90
4651;DHT22;2338;49.602;8.722;2022-10-26T07:58:43;14.30;99.90
4651;DHT22;2338;49.602;8.722;2022-10-26T08:01:28;14.50;99.90
4651;DHT22;2338;49.602;8.722;2022-10-26T08:04:14;14.60;99.90
4651;DHT22;2338;49.602;8.722;2022-10-26T08:07:00;14.70;99.90
4651;DHT22;2338;49.602;8.722;2022-10-26T08:09:45;14.70;99.90
4651;DHT22;2338;49.602;8.722;2022-10-26T08:12:32;14.80;99.90
4651;DHT22;2338;49.602;8.722;2022-10-26T08:15:18;14.90;99.90
4651;DHT22;2338;49.602;8.722;2022-10-26T08:18:04;14.90;99.90
4651;DHT22;2338;49.602;8.722;2022-10-26T08:20:49;15.00;99.90
4651;DHT22;2338;49.602;8.722;2022-10-26T08:23:35;15.00;99.90
4651;DHT22;2338;49.602;8.722;2022-10-26T08:26:21;15.10;99.90
4651;DHT22;2338;49.602;8.722;2022-10-26T08:29:08;15.20;99.90
4651;DHT22;2338;49.602;8.722;2022-10-26T08:31:54;15.30;99.90
4651;DHT22;2338;49.602;8.722;2022-10-26T08:34:40;15.40;99.90
4651;DHT22;2338;49.602;8.722;2022-10-26T08:37:26;15.40;99.90
4651;DHT22;2338;49.602;8.722;2022-10-26T08:40:15;15.40;99.90
4651;DHT22;2338;49.602;8.722;2022-10-26T08:43:03;15.50;99.90
4651;DHT22;2338;49.602;8.722;2022-10-26T08:45:54;15.50;99.90
4651;DHT22;2338;49.602;8.722;2022-10-26T08:48:45;15.60;99.90
4651;DHT22;2338;49.602;8.722;2022-10-26T08:51:33;15.70;99.90
4651;DHT22;2338;49.602;8.722;2022-10-26T08:54:29;15.80;99.90
4651;DHT22;2338;49.602;8.722;2022-10-26T08:57:21;15.90;99.90
4651;DHT22;2338;49.602;8.722;2022-10-26T09:00:11;16.00;99.90
4651;DHT22;2338;49.602;8.722;2022-10-26T09:03:00;16.10;99.90
4651;DHT22;2338;49.602;8.722;2022-10-26T09:06:11;16.20;99.90
4651;DHT22;2338;49.602;8.722;2022-10-26T09:09:02;16.30;99.90
4651;DHT22;2338;49.602;8.722;2022-10-26T09:11:55;16.40;99.90
4651;DHT22;2338;49.602;8.722;2022-10-26T09:14:53;16.50;99.90
4651;DHT22;2338;49.602;8.722;2022-10-26T09:17:45;16.60;99.90
4651;DHT22;2338;49.602;8.722;2022-10-26T09:21:02;16.70;99.90
4651;DHT22;2338;49.602;8.722;2022-10-26T09:23:58;16.70;99.90
4651;DHT22;2338;49.602;8.722;2022-10-26T09:26:52;16.80;99.90
4651;DHT22;2338;49.602;8.722;2022-10-26T09:29:40;16.80;99.90
4651;DHT22;2338;49.602;8.722;2022-10-26T09:32:33;16.80;99.90
4651;DHT22;2338;49.602;8.722;2022-10-26T09:35:22;16.90;99.90
4651;DHT22;2338;49.602;8.722;2022-10-26T09:38:13;17.00;99.90
4651;DHT22;2338;49.602;8.722;2022-10-26T09:41:03;17.00;99.90
4651;DHT22;2338;49.602;8.722;2022-10-26T09:43:55;17.10;99.90
4651;DHT22;2338;49.602;8.722;2022-10-26T09:46:47;17.30;99.90
4651;DHT22;2338;49.602;8.722;2022-10-26T09:49:38;17.40;99.90
4651;DHT22;2338;49.602;8.722;2022-10-26T09:52:26;17.50;99.90
4651;DHT22;2338;49.602;8.722;2022-10-26T09:55:14;17.70;99.90
4651;DHT22;2338;49.602;8.722;2022-10-26T09:58:01;17.80;99.90
4651;DHT22;2338;49.602;8.722;2022-10-26T10:00:48;17.90;99.90
4651;DHT22;2338;49.602;8.722;2022-10-26T10:03:35;18.10;99.90
4651;DHT22;2338;49.602;8.722;2022-10-26T10:06:21;18.20;99.90
4651;DHT22;2338;49.602;8.722;2022-10-26T10:09:10;18.30;99.90
4651;DHT22;2338;49.602;8.722;2022-10-26T10:11:59;18.40;99.90
4651;DHT22;2338;49.602;8.722;2022-10-26T10:14:56;18.60;99.90
4651;DHT22;2338;49.602;8.722;2022-10-26T10:17:46;18.80;99.90
4651;DHT22;2338;49.602;8.722;2022-10-26T10:20:33;19.00;99.90
4651;DHT22;2338;49.602;8.722;2022-10-26T10:23:25;19.00;99.90
4651;DHT22;2338;49.602;8.722;2022-10-26T10:26:11;19.10;99.90
4651;DHT22;2338;49.602;8.722;2022-10-26T10:29:00;19.10;99.90
4651;DHT22;2338;49.602;8.722;2022-10-26T10:31:54;18.90;99.90
4651;DHT22;2338;49.602;8.722;2022-10-26T10:34:40;18.90;99.90
4651;DHT22;2338;49.602;8.722;2022-10-26T10:37:30;18.80;99.90
4651;DHT22;2338;49.602;8.722;2022-10-26T10:40:18;18.70;99.90
4651;DHT22;2338;49.602;8.722;2022-10-26T10:43:11;18.60;99.90
4651;DHT22;2338;49.602;8.722;2022-10-26T10:45:59;18.60;99.90
4651;DHT22;2338;49.602;8.722;2022-10-26T10:48:46;18.50;99.90
4651;DHT22;2338;49.602;8.722;2022-10-26T10:51:37;18.50;99.90
4651;DHT22;2338;49.602;8.722;2022-10-26T10:54:27;18.40;99.90
4651;DHT22;2338;49.602;8.722;2022-10-26T10:57:17;18.40;99.90
4651;DHT22;2338;49.602;8.722;2022-10-26T11:00:08;18.50;99.90
4651;DHT22;2338;49.602;8.722;2022-10-26T11:03:26;18.50;99.90
4651;DHT22;2338;49.602;8.722;2022-10-26T11:06:18;18.50;99.90
4651;DHT22;2338;49.602;8.722;2022-10-26T11:09:08;18.40;99.90
4651;DHT22;2338;49.602;8.722;2022-10-26T11:11:57;18.50;99.90
4651;DHT22;2338;49.602;8.722;2022-10-26T11:14:49;18.60;99.90
4651;DHT22;2338;49.602;8.722;2022-10-26T11:17:42;18.60;99.90
4651;DHT22;2338;49.602;8.722;2022-10-26T11:20:31;18.70;99.90
4651;DHT22;2338;49.602;8.722;2022-10-26T11:23:22;18.70;99.90
4651;DHT22;2338;49.602;8.722;2022-10-26T11:26:11;18.80;99.90
4651;DHT22;2338;49.602;8.722;2022-10-26T11:29:01;18.90;99.90
4651;DHT22;2338;49.602;8.722;2022-10-26T11:31:51;19.10;99.90
4651;DHT22;2338;49.602;8.722;2022-10-26T11:34:44;19.20;99.90
4651;DHT22;2338;49.602;8.722;2022-10-26T11:37:38;19.40;99.90
4651;DHT22;2338;49.602;8.722;2022-10-26T11:40:32;19.50;99.90
4651;DHT22;2338;49.602;8.722;2022-10-26T11:43:24;19.50;99.90
4651;DHT22;2338;49.602;8.722;2022-10-26T11:46:16;19.60;99.90
4651;DHT22;2338;49.602;8.722;2022-10-26T11:49:05;19.70;99.90
4651;DHT22;2338;49.602;8.722;2022-10-26T11:51:58;19.70;99.90
4651;DHT22;2338;49.602;8.722;2022-10-26T11:54:52;19.60;99.90
4651;DHT22;2338;49.602;8.722;2022-10-26T11:57:38;19.50;99.90
4651;DHT22;2338;49.602;8.722;2022-10-26T12:00:26;19.40;99.90
4651;DHT22;2338;49.602;8.722;2022-10-26T12:03:15;19.30;99.90
4651;DHT22;2338;49.602;8.722;2022-10-26T12:06:05;19.20;99.90
4651;DHT22;2338;49.602;8.722;2022-10-26T12:08:54;19.20;99.90
4651;DHT22;2338;49.602;8.722;2022-10-26T12:11:46;19.20;99.90
4651;DHT22;2338;49.602;8.722;2022-10-26T12:14:38;19.20;99.90
4651;DHT22;2338;49.602;8.722;2022-10-26T12:17:31;19.10;99.90
4651;DHT22;2338;49.602;8.722;2022-10-26T12:20:51;19.10;99.90
4651;DHT22;2338;49.602;8.722;2022-10-26T12:23:52;19.10;99.90
4651;DHT22;2338;49.602;8.722;2022-10-26T12:26:38;19.10;99.90
4651;DHT22;2338;49.602;8.722;2022-10-26T12:29:43;19.10;99.90
4651;DHT22;2338;49.602;8.722;2022-10-26T12:32:49;19.10;99.90
4651;DHT22;2338;49.602;8.722;2022-10-26T12:35:40;19.10;99.90
4651;DHT22;2338;49.602;8.722;2022-10-26T12:38:56;19.20;99.90
4651;DHT22;2338;49.602;8.722;2022-10-26T12:41:54;19.20;99.90
4651;DHT22;2338;49.602;8.722;2022-10-26T12:45:00;19.30;99.90
4651;DHT22;2338;49.602;8.722;2022-10-26T12:48:01;19.30;99.90
4651;DHT22;2338;49.602;8.722;2022-10-26T12:50:47;19.40;99.90
4651;DHT22;2338;49.602;8.722;2022-10-26T12:53:33;19.50;99.90
4651;DHT22;2338;49.602;8.722;2022-10-26T12:56:25;19.70;99.90
4651;DHT22;2338;49.602;8.722;2022-10-26T12:59:20;19.80;99.90
4651;DHT22;2338;49.602;8.722;2022-10-26T13:02:35;20.00;99.90
4651;DHT22;2338;49.602;8.722;2022-10-26T13:05:35;20.50;99.90
4651;DHT22;2338;49.602;8.722;2022-10-26T13:08:24;20.90;99.90
4651;DHT22;2338;49.602;8.722;2022-10-26T13:11:15;21.10;99.90
4651;DHT22;2338;49.602;8.722;2022-10-26T13:14:04;21.20;99.90
4651;DHT22;2338;49.602;8.722;2022-10-26T13:16:50;21.20;99.90
4651;DHT22;2338;49.602;8.722;2022-10-26T13:19:42;21.20;99.90
4651;DHT22;2338;49.602;8.722;2022-10-26T13:22:30;21.00;99.90
4651;DHT22;2338;49.602;8.722;2022-10-26T13:25:22;21.00;99.90
4651;DHT22;2338;49.602;8.722;2022-10-26T13:28:30;21.00;99.90
4651;DHT22;2338;49.602;8.722;2022-10-26T13:31:51;20.90;99.90
4651;DHT22;2338;49.602;8.722;2022-10-26T13:34:39;20.90;99.90
4651;DHT22;2338;49.602;8.722;2022-10-26T13:37:29;20.90;99.90
4651;DHT22;2338;49.602;8.722;2022-10-26T13:40:17;20.90;99.90
4651;DHT22;2338;49.602;8.722;2022-10-26T13:43:06;20.60;99.90
4651;DHT22;2338;49.602;8.722;2022-10-26T13:45:58;20.60;99.90
4651;DHT22;2338;49.602;8.722;2022-10-26T13:48:45;20.50;99.90
4651;DHT22;2338;49.602;8.722;2022-10-26T13:51:39;20.40;99.90
4651;DHT22;2338;49.602;8.722;2022-10-26T13:54:29;20.40;99.90
4651;DHT22;2338;49.602;8.722;2022-10-26T13:57:19;20.30;99.90
4651;DHT22;2338;49.602;8.722;2022-10-26T14:00:09;20.20;99.90
4651;DHT22;2338;49.602;8.722;2022-10-26T14:03:10;20.00;99.90
4651;DHT22;2338;49.602;8.722;2022-10-26T14:05:56;20.00;99.90
4651;DHT22;2338;49.602;8.722;2022-10-26T14:08:44;19.90;99.90
4651;DHT22;2338;49.602;8.722;2022-10-26T14:11:34;19.90;99.90
4651;DHT22;2338;49.602;8.722;2022-10-26T14:14:23;19.70;99.90
4651;DHT22;2338;49.602;8.722;2022-10-26T14:17:18;19.70;99.90
4651;DHT22;2338;49.602;8.722;2022-10-26T14:20:05;19.60;99.90
4651;DHT22;2338;49.602;8.722;2022-10-26T14:22:51;19.50;99.90
4651;DHT22;2338;49.602;8.722;2022-10-26T14:25:38;19.50;99.90
4651;DHT22;2338;49.602;8.722;2022-10-26T14:28:25;19.40;99.90
4651;DHT22;2338;49.602;8.722;2022-10-26T14:31:12;19.40;99.90
4651;DHT22;2338;49.602;8.722;2022-10-26T14:33:59;19.40;99.90
4651;DHT22;2338;49.602;8.722;2022-10-26T14:36:47;19.30;99.90
4651;DHT22;2338;49.602;8.722;2022-10-26T14:39:37;19.30;99.90
4651;DHT22;2338;49.602;8.722;2022-10-26T14:42:27;19.30;99.90
4651;DHT22;2338;49.602;8.722;2022-10-26T14:45:26;19.30;99.90
4651;DHT22;2338;49.602;8.722;2022-10-26T14:48:20;19.20;99.90
4651;DHT22;2338;49.602;8.722;2022-10-26T14:51:10;19.20;99.90
4651;DHT22;2338;49.602;8.722;2022-10-26T14:54:00;19.20;99.90
4651;DHT22;2338;49.602;8.722;2022-10-26T14:56:47;19.10;99.90
4651;DHT22;2338;49.602;8.722;2022-10-26T14:59:33;19.10;99.90
4651;DHT22;2338;49.602;8.722;2022-10-26T15:02:21;19.10;99.90
4651;DHT22;2338;49.602;8.722;2022-10-26T15:05:20;19.00;99.90
4651;DHT22;2338;49.602;8.722;2022-10-26T15:11:25;18.80;99.90
4651;DHT22;2338;49.602;8.722;2022-10-26T15:14:11;18.70;99.90
4651;DHT22;2338;49.602;8.722;2022-10-26T15:17:00;18.60;99.90
4651;DHT22;2338;49.602;8.722;2022-10-26T15:19:45;18.50;99.90
4651;DHT22;2338;49.602;8.722;2022-10-26T15:22:32;18.30;99.90
4651;DHT22;2338;49.602;8.722;2022-10-26T15:25:20;18.20;99.90
4651;DHT22;2338;49.602;8.722;2022-10-26T15:28:18;18.10;99.90
4651;DHT22;2338;49.602;8.722;2022-10-26T15:31:07;18.00;99.90
4651;DHT22;2338;49.602;8.722;2022-10-26T15:34:14;17.90;99.90
4651;DHT22;2338;49.602;8.722;2022-10-26T15:36:59;17.80;99.90
4651;DHT22;2338;49.602;8.722;2022-10-26T15:39:45;17.70;99.90
4651;DHT22;2338;49.602;8.722;2022-10-26T15:42:30;17.70;99.90
4651;DHT22;2338;49.602;8.722;2022-10-26T15:45:19;17.70;99.90
4651;DHT22;2338;49.602;8.722;2022-10-26T15:48:22;17.60;99.90
4651;DHT22;2338;49.602;8.722;2022-10-26T15:51:12;17.60;99.90
4651;DHT22;2338;49.602;8.722;2022-10-26T15:54:00;17.50;99.90
4651;DHT22;2338;49.602;8.722;2022-10-26T15:56:46;17.50;99.90
4651;DHT22;2338;49.602;8.722;2022-10-26T15:59:32;17.30;99.90
4651;DHT22;2338;49.602;8.722;2022-10-26T16:02:18;17.10;99.90
4651;DHT22;2338;49.602;8.722;2022-10-26T16:05:04;17.00;99.90
4651;DHT22;2338;49.602;8.722;2022-10-26T16:07:51;17.00;99.90
4651;DHT22;2338;49.602;8.722;2022-10-26T16:10:37;16.90;99.90
4651;DHT22;2338;49.602;8.722;2022-10-26T16:13:23;16.80;99.90
4651;DHT22;2338;49.602;8.722;2022-10-26T16:16:11;16.80;99.90
4651;DHT22;2338;49.602;8.722;2022-10-26T16:18:57;16.70;99.90
4651;DHT22;2338;49.602;8.722;2022-10-26T16:21:43;16.60;99.90
4651;DHT22;2338;49.602;8.722;2022-10-26T16:24:30;16.60;99.90
4651;DHT22;2338;49.602;8.722;2022-10-26T16:27:16;16.60;99.90
4651;DHT22;2338;49.602;8.722;2022-10-26T16:30:02;16.40;99.90
4651;DHT22;2338;49.602;8.722;2022-10-26T16:32:47;16.40;99.90
4651;DHT22;2338;49.602;8.722;2022-10-26T16:35:33;16.40;99.90
4651;DHT22;2338;49.602;8.722;2022-10-26T16:38:19;16.30;99.90
4651;DHT22;2338;49.602;8.722;2022-10-26T16:41:07;16.20;99.90
4651;DHT22;2338;49.602;8.722;2022-10-26T16:43:55;16.10;99.90
4651;DHT22;2338;49.602;8.722;2022-10-26T16:46:41;16.20;99.90
4651;DHT22;2338;49.602;8.722;2022-10-26T16:49:26;16.10;99.90
4651;DHT22;2338;49.602;8.722;2022-10-26T16:52:12;16.00;99.90
4651;DHT22;2338;49.602;8.722;2022-10-26T16:54:58;16.00;99.90
4651;DHT22;2338;49.602;8.722;2022-10-26T16:57:45;15.90;99.90
4651;DHT22;2338;49.602;8.722;2022-10-26T17:00:32;15.80;99.90
4651;DHT22;2338;49.602;8.722;2022-10-26T17:03:18;15.60;99.90
4651;DHT22;2338;49.602;8.722;2022-10-26T17:06:05;15.60;99.90
4651;DHT22;2338;49.602;8.722;2022-10-26T17:08:51;15.50;99.90
4651;DHT22;2338;49.602;8.722;2022-10-26T17:11:37;15.50;99.90
4651;DHT22;2338;49.602;8.722;2022-10-26T17:14:24;15.30;99.90
4651;DHT22;2338;49.602;8.722;2022-10-26T17:17:10;15.40;99.90
4651;DHT22;2338;49.602;8.722;2022-10-26T17:19:56;15.30;99.90
4651;DHT22;2338;49.602;8.722;2022-10-26T17:22:42;15.30;99.90
4651;DHT22;2338;49.602;8.722;2022-10-26T17:25:27;15.20;99.90
4651;DHT22;2338;49.602;8.722;2022-10-26T17:28:13;15.20;99.90
4651;DHT22;2338;49.602;8.722;2022-10-26T17:31:05;15.10;99.90
4651;DHT22;2338;49.602;8.722;2022-10-26T17:33:51;15.00;99.90
4651;DHT22;2338;49.602;8.722;2022-10-26T17:36:37;15.00;99.90
4651;DHT22;2338;49.602;8.722;2022-10-26T17:39:22;14.90;99.90
4651;DHT22;2338;49.602;8.722;2022-10-26T17:42:08;14.80;99.90
4651;DHT22;2338;49.602;8.722;2022-10-26T17:44:54;14.80;99.90
4651;DHT22;2338;49.602;8.722;2022-10-26T17:47:41;14.80;99.90
4651;DHT22;2338;49.602;8.722;2022-10-26T17:50:27;14.80;99.90
4651;DHT22;2338;49.602;8.722;2022-10-26T17:53:12;14.80;99.90
4651;DHT22;2338;49.602;8.722;2022-10-26T17:56:02;14.90;99.90
4651;DHT22;2338;49.602;8.722;2022-10-26T17:58:51;14.90;99.90
4651;DHT22;2338;49.602;8.722;2022-10-26T18:01:37;14.90;99.90
4651;DHT22;2338;49.602;8.722;2022-10-26T18:04:24;14.90;99.90
4651;DHT22;2338;49.602;8.722;2022-10-26T18:07:10;15.00;99.90
4651;DHT22;2338;49.602;8.722;2022-10-26T18:09:56;15.00;99.90
4651;DHT22;2338;49.602;8.722;2022-10-26T18:12:41;14.90;99.90
4651;DHT22;2338;49.602;8.722;2022-10-26T18:15:27;14.80;99.90
4651;DHT22;2338;49.602;8.722;2022-10-26T18:18:13;14.80;99.90
4651;DHT22;2338;49.602;8.722;2022-10-26T18:21:04;14.70;99.90
4651;DHT22;2338;49.602;8.722;2022-10-26T18:23:51;14.70;99.90
4651;DHT22;2338;49.602;8.722;2022-10-26T18:26:37;14.60;99.90
4651;DHT22;2338;49.602;8.722;2022-10-26T18:29:23;14.60;99.90
4651;DHT22;2338;49.602;8.722;2022-10-26T18:32:08;14.50;99.90
4651;DHT22;2338;49.602;8.722;2022-10-26T18:34:54;14.50;99.90
4651;DHT22;2338;49.602;8.722;2022-10-26T18:37:41;14.40;99.90